sensor_id;sensor_type;location;lat;lon;timestamp;P1;durP1;ratioP1;P2;durP2;ratioP2
41221;SDS011;26952;42.884;23.918;2023-03-01T00:01:55;167.27;;;10.75;;
41221;SDS011;26952;42.884;23.918;2023-03-01T00:04:20;99.28;;;8.95;;
41221;SDS011;26952;42.884;23.918;2023-03-01T00:06:46;77.25;;;7.75;;
41221;SDS011;26952;42.884;23.918;2023-03-01T00:09:13;158.00;;;9.55;;
41221;SDS011;26952;42.884;23.918;2023-03-01T00:11:39;221.75;;;15.85;;
41221;SDS011;26952;42.884;23.918;2023-03-01T00:14:04;56.95;;;6.43;;
41221;SDS011;26952;42.884;23.918;2023-03-01T00:16:33;4.78;;;4.30;;
41221;SDS011;26952;42.884;23.918;2023-03-01T00:19:00;105.90;;;8.73;;
41221;SDS011;26952;42.884;23.918;2023-03-01T00:21:26;32.97;;;5.60;;
41221;SDS011;26952;42.884;23.918;2023-03-01T00:23:52;8.85;;;4.75;;
41221;SDS011;26952;42.884;23.918;2023-03-01T00:26:19;5.00;;;4.50;;
41221;SDS011;26952;42.884;23.918;2023-03-01T00:28:46;5.07;;;4.57;;
41221;SDS011;26952;42.884;23.918;2023-03-01T00:31:16;5.68;;;5.03;;
41221;SDS011;26952;42.884;23.918;2023-03-01T00:33:44;4.32;;;3.85;;
41221;SDS011;26952;42.884;23.918;2023-03-01T00:36:10;5.13;;;4.63;;
41221;SDS011;26952;42.884;23.918;2023-03-01T00:38:37;7.43;;;4.18;;
41221;SDS011;26952;42.884;23.918;2023-03-01T00:41:07;4.30;;;3.90;;
41221;SDS011;26952;42.884;23.918;2023-03-01T00:43:35;4.13;;;3.83;;
41221;SDS011;26952;42.884;23.918;2023-03-01T00:46:04;4.10;;;3.75;;
41221;SDS011;26952;42.884;23.918;2023-03-01T00:48:34;5.45;;;4.72;;
41221;SDS011;26952;42.884;23.918;2023-03-01T00:51:42;5.35;;;4.53;;
41221;SDS011;26952;42.884;23.918;2023-03-01T00:53:55;6.20;;;4.65;;
41221;SDS011;26952;42.884;23.918;2023-03-01T00:56:22;7.43;;;5.13;;
41221;SDS011;26952;42.884;23.918;2023-03-01T00:58:48;8.43;;;5.85;;
41221;SDS011;26952;42.884;23.918;2023-03-01T01:06:29;5.72;;;5.22;;
41221;SDS011;26952;42.884;23.918;2023-03-01T01:09:00;13.02;;;5.95;;
41221;SDS011;26952;42.884;23.918;2023-03-01T01:11:26;8.70;;;5.57;;
41221;SDS011;26952;42.884;23.918;2023-03-01T01:13:53;34.45;;;5.90;;
41221;SDS011;26952;42.884;23.918;2023-03-01T01:16:20;6.60;;;4.75;;
41221;SDS011;26952;42.884;23.918;2023-03-01T01:18:48;5.50;;;4.80;;
41221;SDS011;26952;42.884;23.918;2023-03-01T01:21:15;8.55;;;5.80;;
41221;SDS011;26952;42.884;23.918;2023-03-01T01:23:42;6.43;;;5.78;;
41221;SDS011;26952;42.884;23.918;2023-03-01T01:26:16;6.68;;;5.97;;
41221;SDS011;26952;42.884;23.918;2023-03-01T01:28:44;5.65;;;5.15;;
41221;SDS011;26952;42.884;23.918;2023-03-01T01:31:10;10.07;;;5.90;;
41221;SDS011;26952;42.884;23.918;2023-03-01T01:33:36;6.30;;;5.55;;
41221;SDS011;26952;42.884;23.918;2023-03-01T01:36:02;6.25;;;5.28;;
41221;SDS011;26952;42.884;23.918;2023-03-01T01:38:29;7.18;;;5.97;;
41221;SDS011;26952;42.884;23.918;2023-03-01T01:40:54;5.88;;;5.28;;
41221;SDS011;26952;42.884;23.918;2023-03-01T01:43:42;5.45;;;5.03;;
41221;SDS011;26952;42.884;23.918;2023-03-01T01:49:00;6.00;;;5.50;;
41221;SDS011;26952;42.884;23.918;2023-03-01T01:51:30;5.63;;;5.13;;
41221;SDS011;26952;42.884;23.918;2023-03-01T01:54:03;7.82;;;5.60;;
41221;SDS011;26952;42.884;23.918;2023-03-01T01:56:33;5.03;;;4.53;;
41221;SDS011;26952;42.884;23.918;2023-03-01T01:58:59;5.43;;;4.95;;
41221;SDS011;26952;42.884;23.918;2023-03-01T02:01:26;5.45;;;4.78;;
41221;SDS011;26952;42.884;23.918;2023-03-01T02:03:51;5.97;;;4.75;;
41221;SDS011;26952;42.884;23.918;2023-03-01T02:08:55;6.00;;;5.40;;
41221;SDS011;26952;42.884;23.918;2023-03-01T02:11:25;12.82;;;5.50;;
41221;SDS011;26952;42.884;23.918;2023-03-01T02:13:52;5.45;;;4.90;;
41221;SDS011;26952;42.884;23.918;2023-03-01T02:16:19;4.40;;;3.90;;
41221;SDS011;26952;42.884;23.918;2023-03-01T02:18:45;5.32;;;4.80;;
41221;SDS011;26952;42.884;23.918;2023-03-01T02:23:54;19.75;;;5.20;;
41221;SDS011;26952;42.884;23.918;2023-03-01T02:29:10;47.13;;;8.18;;
41221;SDS011;26952;42.884;23.918;2023-03-01T02:31:35;60.92;;;7.40;;
41221;SDS011;26952;42.884;23.918;2023-03-01T02:34:08;11.98;;;5.85;;
41221;SDS011;26952;42.884;23.918;2023-03-01T02:36:44;123.28;;;7.63;;
41221;SDS011;26952;42.884;23.918;2023-03-01T02:39:14;28.05;;;6.40;;
41221;SDS011;26952;42.884;23.918;2023-03-01T02:41:45;113.60;;;10.48;;
41221;SDS011;26952;42.884;23.918;2023-03-01T02:44:14;365.95;;;21.17;;
41221;SDS011;26952;42.884;23.918;2023-03-01T02:46:53;281.23;;;13.13;;
41221;SDS011;26952;42.884;23.918;2023-03-01T02:49:22;524.95;;;24.08;;
41221;SDS011;26952;42.884;23.918;2023-03-01T02:54:26;58.30;;;7.45;;
41221;SDS011;26952;42.884;23.918;2023-03-01T02:56:56;608.63;;;29.65;;
41221;SDS011;26952;42.884;23.918;2023-03-01T02:59:24;429.27;;;21.38;;
41221;SDS011;26952;42.884;23.918;2023-03-01T03:01:53;344.08;;;16.75;;
41221;SDS011;26952;42.884;23.918;2023-03-01T03:04:19;201.93;;;13.15;;
41221;SDS011;26952;42.884;23.918;2023-03-01T03:06:46;572.85;;;27.63;;
41221;SDS011;26952;42.884;23.918;2023-03-01T03:09:13;720.00;;;35.50;;
41221;SDS011;26952;42.884;23.918;2023-03-01T03:11:39;438.88;;;22.70;;
41221;SDS011;26952;42.884;23.918;2023-03-01T03:14:06;389.23;;;21.63;;
41221;SDS011;26952;42.884;23.918;2023-03-01T03:16:41;320.65;;;18.50;;
41221;SDS011;26952;42.884;23.918;2023-03-01T03:19:08;518.42;;;30.15;;
41221;SDS011;26952;42.884;23.918;2023-03-01T03:21:34;603.97;;;29.92;;
41221;SDS011;26952;42.884;23.918;2023-03-01T03:24:00;536.55;;;27.75;;
41221;SDS011;26952;42.884;23.918;2023-03-01T03:26:25;420.35;;;23.38;;
41221;SDS011;26952;42.884;23.918;2023-03-01T03:28:51;262.10;;;14.88;;
41221;SDS011;26952;42.884;23.918;2023-03-01T03:31:16;590.78;;;29.15;;
41221;SDS011;26952;42.884;23.918;2023-03-01T03:33:42;433.20;;;25.70;;
41221;SDS011;26952;42.884;23.918;2023-03-01T03:36:08;135.68;;;8.63;;
41221;SDS011;26952;42.884;23.918;2023-03-01T03:38:38;337.52;;;16.75;;
41221;SDS011;26952;42.884;23.918;2023-03-01T03:41:05;152.05;;;9.38;;
41221;SDS011;26952;42.884;23.918;2023-03-01T03:43:33;74.18;;;6.25;;
41221;SDS011;26952;42.884;23.918;2023-03-01T03:46:00;196.77;;;12.30;;
41221;SDS011;26952;42.884;23.918;2023-03-01T03:48:30;136.90;;;9.70;;
41221;SDS011;26952;42.884;23.918;2023-03-01T03:51:00;43.28;;;5.55;;
41221;SDS011;26952;42.884;23.918;2023-03-01T03:53:26;93.88;;;8.93;;
41221;SDS011;26952;42.884;23.918;2023-03-01T03:55:54;306.35;;;15.90;;
41221;SDS011;26952;42.884;23.918;2023-03-01T03:58:20;678.75;;;32.50;;
41221;SDS011;26952;42.884;23.918;2023-03-01T04:00:49;299.75;;;17.58;;
41221;SDS011;26952;42.884;23.918;2023-03-01T04:03:16;357.58;;;22.90;;
41221;SDS011;26952;42.884;23.918;2023-03-01T04:05:43;77.03;;;8.57;;
41221;SDS011;26952;42.884;23.918;2023-03-01T04:08:09;174.23;;;11.00;;
41221;SDS011;26952;42.884;23.918;2023-03-01T04:10:36;19.40;;;6.13;;
41221;SDS011;26952;42.884;23.918;2023-03-01T04:13:04;42.85;;;6.82;;
41221;SDS011;26952;42.884;23.918;2023-03-01T04:15:30;12.65;;;5.97;;
41221;SDS011;26952;42.884;23.918;2023-03-01T04:17:57;16.73;;;5.55;;
41221;SDS011;26952;42.884;23.918;2023-03-01T04:20:25;7.25;;;5.03;;
41221;SDS011;26952;42.884;23.918;2023-03-01T04:25:22;15.05;;;4.70;;
41221;SDS011;26952;42.884;23.918;2023-03-01T04:27:48;25.10;;;5.18;;
41221;SDS011;26952;42.884;23.918;2023-03-01T04:30:14;22.90;;;4.82;;
41221;SDS011;26952;42.884;23.918;2023-03-01T04:32:40;4.85;;;4.25;;
41221;SDS011;26952;42.884;23.918;2023-03-01T04:35:05;5.72;;;4.25;;
41221;SDS011;26952;42.884;23.918;2023-03-01T04:37:31;51.08;;;7.43;;
41221;SDS011;26952;42.884;23.918;2023-03-01T04:39:57;200.60;;;11.38;;
41221;SDS011;26952;42.884;23.918;2023-03-01T04:42:22;71.88;;;6.85;;
41221;SDS011;26952;42.884;23.918;2023-03-01T04:44:48;205.13;;;10.77;;
41221;SDS011;26952;42.884;23.918;2023-03-01T04:47:16;110.00;;;7.75;;
41221;SDS011;26952;42.884;23.918;2023-03-01T04:49:42;20.30;;;5.53;;
41221;SDS011;26952;42.884;23.918;2023-03-01T04:52:07;49.10;;;6.10;;
41221;SDS011;26952;42.884;23.918;2023-03-01T04:54:34;7.07;;;3.28;;
41221;SDS011;26952;42.884;23.918;2023-03-01T04:57:00;6.18;;;3.28;;
41221;SDS011;26952;42.884;23.918;2023-03-01T04:59:26;3.92;;;3.55;;
41221;SDS011;26952;42.884;23.918;2023-03-01T05:01:53;4.15;;;3.50;;
41221;SDS011;26952;42.884;23.918;2023-03-01T05:04:20;4.68;;;3.38;;
41221;SDS011;26952;42.884;23.918;2023-03-01T05:06:46;8.43;;;3.13;;
41221;SDS011;26952;42.884;23.918;2023-03-01T05:09:11;7.57;;;3.40;;
41221;SDS011;26952;42.884;23.918;2023-03-01T05:11:37;7.93;;;3.22;;
41221;SDS011;26952;42.884;23.918;2023-03-01T05:14:03;58.65;;;5.63;;
41221;SDS011;26952;42.884;23.918;2023-03-01T05:16:30;9.50;;;3.33;;
41221;SDS011;26952;42.884;23.918;2023-03-01T05:18:56;3.53;;;2.67;;
41221;SDS011;26952;42.884;23.918;2023-03-01T05:21:22;3.95;;;2.75;;
41221;SDS011;26952;42.884;23.918;2023-03-01T05:23:47;2.67;;;2.47;;
41221;SDS011;26952;42.884;23.918;2023-03-01T05:26:14;2.75;;;2.55;;
41221;SDS011;26952;42.884;23.918;2023-03-01T05:28:40;2.95;;;2.75;;
41221;SDS011;26952;42.884;23.918;2023-03-01T05:31:06;2.85;;;2.65;;
41221;SDS011;26952;42.884;23.918;2023-03-01T05:33:35;2.72;;;2.53;;
41221;SDS011;26952;42.884;23.918;2023-03-01T05:36:03;3.05;;;2.75;;
41221;SDS011;26952;42.884;23.918;2023-03-01T05:38:29;3.42;;;3.13;;
41221;SDS011;26952;42.884;23.918;2023-03-01T05:40:54;2.92;;;2.72;;
41221;SDS011;26952;42.884;23.918;2023-03-01T05:43:20;3.33;;;3.03;;
41221;SDS011;26952;42.884;23.918;2023-03-01T05:45:46;2.85;;;2.65;;
41221;SDS011;26952;42.884;23.918;2023-03-01T05:48:12;4.90;;;3.35;;
41221;SDS011;26952;42.884;23.918;2023-03-01T05:50:39;3.47;;;3.17;;
41221;SDS011;26952;42.884;23.918;2023-03-01T05:53:07;2.83;;;2.28;;
41221;SDS011;26952;42.884;23.918;2023-03-01T05:55:36;3.80;;;2.50;;
41221;SDS011;26952;42.884;23.918;2023-03-01T05:58:02;2.97;;;2.78;;
41221;SDS011;26952;42.884;23.918;2023-03-01T06:00:30;3.90;;;2.85;;
41221;SDS011;26952;42.884;23.918;2023-03-01T06:02:56;4.07;;;2.90;;
41221;SDS011;26952;42.884;23.918;2023-03-01T06:05:23;4.15;;;3.17;;
41221;SDS011;26952;42.884;23.918;2023-03-01T06:07:49;3.38;;;3.00;;
41221;SDS011;26952;42.884;23.918;2023-03-01T06:10:15;3.53;;;3.00;;
41221;SDS011;26952;42.884;23.918;2023-03-01T06:12:42;3.53;;;3.22;;
41221;SDS011;26952;42.884;23.918;2023-03-01T06:15:09;4.07;;;3.65;;
41221;SDS011;26952;42.884;23.918;2023-03-01T06:17:36;3.40;;;3.20;;
41221;SDS011;26952;42.884;23.918;2023-03-01T06:20:03;4.35;;;4.05;;
41221;SDS011;26952;42.884;23.918;2023-03-01T06:22:29;4.55;;;4.00;;
41221;SDS011;26952;42.884;23.918;2023-03-01T06:24:55;5.30;;;3.00;;
41221;SDS011;26952;42.884;23.918;2023-03-01T06:27:20;3.88;;;3.53;;
41221;SDS011;26952;42.884;23.918;2023-03-01T06:29:45;4.50;;;4.30;;
41221;SDS011;26952;42.884;23.918;2023-03-01T06:32:11;3.17;;;3.00;;
41221;SDS011;26952;42.884;23.918;2023-03-01T06:34:36;3.30;;;3.10;;
41221;SDS011;26952;42.884;23.918;2023-03-01T06:37:02;4.00;;;3.70;;
41221;SDS011;26952;42.884;23.918;2023-03-01T06:39:30;4.95;;;4.22;;
41221;SDS011;26952;42.884;23.918;2023-03-01T06:41:56;3.70;;;3.50;;
41221;SDS011;26952;42.884;23.918;2023-03-01T06:44:21;4.45;;;4.15;;
41221;SDS011;26952;42.884;23.918;2023-03-01T06:46:46;4.43;;;4.03;;
41221;SDS011;26952;42.884;23.918;2023-03-01T06:49:12;4.05;;;3.65;;
41221;SDS011;26952;42.884;23.918;2023-03-01T06:51:37;4.47;;;4.10;;
41221;SDS011;26952;42.884;23.918;2023-03-01T06:54:05;3.38;;;3.17;;
41221;SDS011;26952;42.884;23.918;2023-03-01T06:56:31;4.28;;;3.42;;
41221;SDS011;26952;42.884;23.918;2023-03-01T06:58:57;5.18;;;3.78;;
41221;SDS011;26952;42.884;23.918;2023-03-01T07:01:22;3.30;;;3.00;;
41221;SDS011;26952;42.884;23.918;2023-03-01T07:03:48;5.18;;;3.92;;
41221;SDS011;26952;42.884;23.918;2023-03-01T07:06:13;4.75;;;4.25;;
41221;SDS011;26952;42.884;23.918;2023-03-01T07:08:39;3.97;;;3.67;;
41221;SDS011;26952;42.884;23.918;2023-03-01T07:11:04;4.53;;;4.07;;
41221;SDS011;26952;42.884;23.918;2023-03-01T07:13:30;6.32;;;4.80;;
41221;SDS011;26952;42.884;23.918;2023-03-01T07:15:56;3.78;;;3.47;;
41221;SDS011;26952;42.884;23.918;2023-03-01T07:18:22;4.53;;;2.97;;
41221;SDS011;26952;42.884;23.918;2023-03-01T07:20:47;2.95;;;2.75;;
41221;SDS011;26952;42.884;23.918;2023-03-01T07:23:12;3.13;;;2.83;;
41221;SDS011;26952;42.884;23.918;2023-03-01T07:25:38;2.50;;;2.30;;
41221;SDS011;26952;42.884;23.918;2023-03-01T07:28:03;3.38;;;2.40;;
41221;SDS011;26952;42.884;23.918;2023-03-01T07:30:29;2.53;;;2.33;;
41221;SDS011;26952;42.884;23.918;2023-03-01T07:32:55;2.35;;;2.20;;
41221;SDS011;26952;42.884;23.918;2023-03-01T07:35:21;3.08;;;2.78;;
41221;SDS011;26952;42.884;23.918;2023-03-01T07:37:46;3.63;;;2.67;;
41221;SDS011;26952;42.884;23.918;2023-03-01T07:40:12;4.03;;;2.53;;
41221;SDS011;26952;42.884;23.918;2023-03-01T07:42:37;3.65;;;3.35;;
41221;SDS011;26952;42.884;23.918;2023-03-01T07:45:04;4.57;;;3.92;;
41221;SDS011;26952;42.884;23.918;2023-03-01T07:47:30;4.75;;;4.25;;
41221;SDS011;26952;42.884;23.918;2023-03-01T07:49:56;7.22;;;5.55;;
41221;SDS011;26952;42.884;23.918;2023-03-01T07:52:21;6.43;;;5.28;;
41221;SDS011;26952;42.884;23.918;2023-03-01T07:54:46;6.90;;;6.00;;
41221;SDS011;26952;42.884;23.918;2023-03-01T07:57:12;7.07;;;5.50;;
41221;SDS011;26952;42.884;23.918;2023-03-01T07:59:37;5.97;;;5.30;;
41221;SDS011;26952;42.884;23.918;2023-03-01T08:02:03;6.05;;;5.50;;
41221;SDS011;26952;42.884;23.918;2023-03-01T08:04:28;8.32;;;6.95;;
41221;SDS011;26952;42.884;23.918;2023-03-01T08:06:54;7.25;;;6.65;;
41221;SDS011;26952;42.884;23.918;2023-03-01T08:09:20;7.00;;;6.40;;
41221;SDS011;26952;42.884;23.918;2023-03-01T08:11:46;7.63;;;6.93;;
41221;SDS011;26952;42.884;23.918;2023-03-01T08:14:12;7.97;;;7.38;;
41221;SDS011;26952;42.884;23.918;2023-03-01T08:16:37;8.48;;;7.88;;
41221;SDS011;26952;42.884;23.918;2023-03-01T08:19:06;8.57;;;7.68;;
41221;SDS011;26952;42.884;23.918;2023-03-01T08:21:33;9.57;;;7.70;;
41221;SDS011;26952;42.884;23.918;2023-03-01T08:24:02;8.05;;;7.35;;
41221;SDS011;26952;42.884;23.918;2023-03-01T08:26:29;10.45;;;9.40;;
41221;SDS011;26952;42.884;23.918;2023-03-01T08:28:54;9.70;;;8.70;;
41221;SDS011;26952;42.884;23.918;2023-03-01T08:31:24;7.88;;;7.03;;
41221;SDS011;26952;42.884;23.918;2023-03-01T08:33:53;6.32;;;5.72;;
41221;SDS011;26952;42.884;23.918;2023-03-01T08:36:21;6.97;;;4.90;;
41221;SDS011;26952;42.884;23.918;2023-03-01T08:38:51;7.38;;;6.68;;
41221;SDS011;26952;42.884;23.918;2023-03-01T08:41:17;7.53;;;6.22;;
41221;SDS011;26952;42.884;23.918;2023-03-01T08:43:43;8.95;;;8.15;;
41221;SDS011;26952;42.884;23.918;2023-03-01T08:46:08;7.78;;;7.07;;
41221;SDS011;26952;42.884;23.918;2023-03-01T08:48:34;9.02;;;8.23;;
41221;SDS011;26952;42.884;23.918;2023-03-01T08:51:07;9.85;;;9.05;;
41221;SDS011;26952;42.884;23.918;2023-03-01T08:53:44;8.07;;;7.47;;
41221;SDS011;26952;42.884;23.918;2023-03-01T08:56:10;9.55;;;8.77;;
41221;SDS011;26952;42.884;23.918;2023-03-01T08:58:36;8.93;;;8.05;;
41221;SDS011;26952;42.884;23.918;2023-03-01T09:01:12;7.32;;;6.63;;
41221;SDS011;26952;42.884;23.918;2023-03-01T09:03:39;7.00;;;6.40;;
41221;SDS011;26952;42.884;23.918;2023-03-01T09:06:05;10.73;;;7.68;;
41221;SDS011;26952;42.884;23.918;2023-03-01T09:08:34;11.43;;;9.48;;
41221;SDS011;26952;42.884;23.918;2023-03-01T09:11:01;8.13;;;7.45;;
41221;SDS011;26952;42.884;23.918;2023-03-01T09:13:28;7.95;;;6.82;;
41221;SDS011;26952;42.884;23.918;2023-03-01T09:15:56;7.43;;;6.72;;
41221;SDS011;26952;42.884;23.918;2023-03-01T09:18:22;7.90;;;7.22;;
41221;SDS011;26952;42.884;23.918;2023-03-01T09:20:47;7.85;;;7.22;;
41221;SDS011;26952;42.884;23.918;2023-03-01T09:23:12;8.77;;;7.97;;
41221;SDS011;26952;42.884;23.918;2023-03-01T09:25:38;8.55;;;7.75;;
41221;SDS011;26952;42.884;23.918;2023-03-01T09:28:03;8.38;;;7.75;;
41221;SDS011;26952;42.884;23.918;2023-03-01T09:30:29;6.55;;;6.00;;
41221;SDS011;26952;42.884;23.918;2023-03-01T09:32:55;6.05;;;5.55;;
41221;SDS011;26952;42.884;23.918;2023-03-01T09:35:21;6.25;;;5.65;;
41221;SDS011;26952;42.884;23.918;2023-03-01T09:37:47;6.47;;;5.97;;
41221;SDS011;26952;42.884;23.918;2023-03-01T09:40:16;6.82;;;6.15;;
41221;SDS011;26952;42.884;23.918;2023-03-01T09:45:34;6.75;;;6.10;;
41221;SDS011;26952;42.884;23.918;2023-03-01T09:48:03;6.90;;;6.40;;
41221;SDS011;26952;42.884;23.918;2023-03-01T09:50:33;8.75;;;7.03;;
41221;SDS011;26952;42.884;23.918;2023-03-01T09:53:02;6.97;;;6.47;;
41221;SDS011;26952;42.884;23.918;2023-03-01T09:55:31;7.68;;;6.88;;
41221;SDS011;26952;42.884;23.918;2023-03-01T09:58:06;7.43;;;6.72;;
41221;SDS011;26952;42.884;23.918;2023-03-01T10:00:56;5.78;;;5.28;;
41221;SDS011;26952;42.884;23.918;2023-03-01T10:03:30;5.22;;;4.80;;
41221;SDS011;26952;42.884;23.918;2023-03-01T10:06:22;5.82;;;5.22;;
41221;SDS011;26952;42.884;23.918;2023-03-01T10:08:53;6.68;;;6.07;;
41221;SDS011;26952;42.884;23.918;2023-03-01T10:11:39;6.47;;;5.97;;
41221;SDS011;26952;42.884;23.918;2023-03-01T10:14:21;9.50;;;8.60;;
41221;SDS011;26952;42.884;23.918;2023-03-01T10:17:11;8.85;;;7.82;;
41221;SDS011;26952;42.884;23.918;2023-03-01T10:19:42;6.30;;;5.80;;
41221;SDS011;26952;42.884;23.918;2023-03-01T10:22:11;6.30;;;5.80;;
41221;SDS011;26952;42.884;23.918;2023-03-01T10:24:41;7.75;;;4.72;;
41221;SDS011;26952;42.884;23.918;2023-03-01T10:27:09;5.47;;;5.00;;
41221;SDS011;26952;42.884;23.918;2023-03-01T10:32:25;4.82;;;4.38;;
41221;SDS011;26952;42.884;23.918;2023-03-01T10:34:51;5.65;;;5.15;;
41221;SDS011;26952;42.884;23.918;2023-03-01T10:37:17;9.60;;;5.65;;
41221;SDS011;26952;42.884;23.918;2023-03-01T10:42:30;6.70;;;6.10;;
41221;SDS011;26952;42.884;23.918;2023-03-01T10:45:14;7.50;;;6.47;;
41221;SDS011;26952;42.884;23.918;2023-03-01T10:47:41;7.18;;;6.57;;
41221;SDS011;26952;42.884;23.918;2023-03-01T10:50:20;7.38;;;6.78;;
41221;SDS011;26952;42.884;23.918;2023-03-01T10:52:58;7.10;;;6.50;;
41221;SDS011;26952;42.884;23.918;2023-03-01T10:55:38;7.07;;;6.50;;
41221;SDS011;26952;42.884;23.918;2023-03-01T10:58:09;7.47;;;6.88;;
41221;SDS011;26952;42.884;23.918;2023-03-01T11:01:23;8.48;;;7.78;;
41221;SDS011;26952;42.884;23.918;2023-03-01T11:04:03;8.65;;;8.00;;
41221;SDS011;26952;42.884;23.918;2023-03-01T11:06:45;6.97;;;6.47;;
41221;SDS011;26952;42.884;23.918;2023-03-01T11:09:24;6.28;;;5.78;;
41221;SDS011;26952;42.884;23.918;2023-03-01T11:11:53;7.10;;;6.40;;
41221;SDS011;26952;42.884;23.918;2023-03-01T11:14:21;5.72;;;5.38;;
41221;SDS011;26952;42.884;23.918;2023-03-01T11:16:49;7.35;;;6.90;;
41221;SDS011;26952;42.884;23.918;2023-03-01T11:19:23;6.78;;;6.38;;
41221;SDS011;26952;42.884;23.918;2023-03-01T11:24:43;6.97;;;6.47;;
41221;SDS011;26952;42.884;23.918;2023-03-01T11:27:14;6.47;;;5.88;;
41221;SDS011;26952;42.884;23.918;2023-03-01T11:29:44;4.63;;;4.25;;
41221;SDS011;26952;42.884;23.918;2023-03-01T11:32:16;4.15;;;3.85;;
41221;SDS011;26952;42.884;23.918;2023-03-01T11:34:46;3.92;;;3.63;;
41221;SDS011;26952;42.884;23.918;2023-03-01T11:37:21;4.20;;;3.65;;
41221;SDS011;26952;42.884;23.918;2023-03-01T11:40:39;4.00;;;3.70;;
41221;SDS011;26952;42.884;23.918;2023-03-01T11:43:26;3.92;;;3.63;;
41221;SDS011;26952;42.884;23.918;2023-03-01T11:48:30;5.38;;;4.88;;
41221;SDS011;26952;42.884;23.918;2023-03-01T11:51:02;6.65;;;5.95;;
41221;SDS011;26952;42.884;23.918;2023-03-01T11:53:48;10.18;;;8.20;;
41221;SDS011;26952;42.884;23.918;2023-03-01T12:04:20;6.68;;;6.18;;
41221;SDS011;26952;42.884;23.918;2023-03-01T12:20:53;5.22;;;4.72;;
41221;SDS011;26952;42.884;23.918;2023-03-01T12:24:12;4.03;;;3.72;;
41221;SDS011;26952;42.884;23.918;2023-03-01T12:35:28;5.47;;;4.97;;
41221;SDS011;26952;42.884;23.918;2023-03-01T12:40:55;7.45;;;5.50;;
41221;SDS011;26952;42.884;23.918;2023-03-01T12:51:38;6.10;;;5.60;;
41221;SDS011;26952;42.884;23.918;2023-03-01T12:54:07;7.25;;;5.97;;
41221;SDS011;26952;42.884;23.918;2023-03-01T12:56:40;6.78;;;5.47;;
41221;SDS011;26952;42.884;23.918;2023-03-01T12:59:11;7.88;;;5.57;;
41221;SDS011;26952;42.884;23.918;2023-03-01T13:20:25;8.15;;;7.50;;
41221;SDS011;26952;42.884;23.918;2023-03-01T13:34:01;9.07;;;8.18;;
41221;SDS011;26952;42.884;23.918;2023-03-01T13:46:48;10.15;;;9.18;;
41221;SDS011;26952;42.884;23.918;2023-03-01T13:58:13;8.60;;;7.57;;
41221;SDS011;26952;42.884;23.918;2023-03-01T14:00:46;6.72;;;6.03;;
41221;SDS011;26952;42.884;23.918;2023-03-01T14:03:16;8.38;;;7.38;;
41221;SDS011;26952;42.884;23.918;2023-03-01T14:05:44;8.55;;;7.65;;
41221;SDS011;26952;42.884;23.918;2023-03-01T14:08:24;7.57;;;6.65;;
41221;SDS011;26952;42.884;23.918;2023-03-01T14:19:26;7.32;;;6.63;;
41221;SDS011;26952;42.884;23.918;2023-03-01T14:22:00;10.73;;;8.27;;
41221;SDS011;26952;42.884;23.918;2023-03-01T14:24:31;10.30;;;8.55;;
41221;SDS011;26952;42.884;23.918;2023-03-01T14:27:02;9.55;;;7.38;;
41221;SDS011;26952;42.884;23.918;2023-03-01T14:29:35;9.68;;;8.50;;
41221;SDS011;26952;42.884;23.918;2023-03-01T14:32:35;12.70;;;9.57;;
41221;SDS011;26952;42.884;23.918;2023-03-01T14:34:55;13.00;;;8.27;;
41221;SDS011;26952;42.884;23.918;2023-03-01T14:37:29;15.93;;;10.68;;
41221;SDS011;26952;42.884;23.918;2023-03-01T14:39:59;12.85;;;11.52;;
41221;SDS011;26952;42.884;23.918;2023-03-01T14:42:28;10.40;;;9.52;;
41221;SDS011;26952;42.884;23.918;2023-03-01T14:45:00;10.10;;;9.15;;
41221;SDS011;26952;42.884;23.918;2023-03-01T14:47:29;11.30;;;8.32;;
41221;SDS011;26952;42.884;23.918;2023-03-01T14:50:00;8.32;;;7.47;;
41221;SDS011;26952;42.884;23.918;2023-03-01T14:52:40;9.27;;;7.72;;
41221;SDS011;26952;42.884;23.918;2023-03-01T14:55:20;9.07;;;7.20;;
41221;SDS011;26952;42.884;23.918;2023-03-01T14:57:51;12.57;;;10.00;;
41221;SDS011;26952;42.884;23.918;2023-03-01T15:00:27;13.93;;;8.65;;
41221;SDS011;26952;42.884;23.918;2023-03-01T15:02:54;10.60;;;7.05;;
41221;SDS011;26952;42.884;23.918;2023-03-01T15:05:28;10.32;;;7.43;;
41221;SDS011;26952;42.884;23.918;2023-03-01T15:07:59;9.48;;;8.57;;
41221;SDS011;26952;42.884;23.918;2023-03-01T15:10:28;12.60;;;10.70;;
41221;SDS011;26952;42.884;23.918;2023-03-01T15:13:12;10.93;;;9.82;;
41221;SDS011;26952;42.884;23.918;2023-03-01T15:18:29;25.33;;;14.95;;
41221;SDS011;26952;42.884;23.918;2023-03-01T15:20:55;15.25;;;10.75;;
41221;SDS011;26952;42.884;23.918;2023-03-01T15:23:30;45.50;;;24.40;;
41221;SDS011;26952;42.884;23.918;2023-03-01T15:25:55;28.30;;;20.27;;
41221;SDS011;26952;42.884;23.918;2023-03-01T15:28:29;29.85;;;17.25;;
41221;SDS011;26952;42.884;23.918;2023-03-01T15:31:00;29.70;;;18.65;;
41221;SDS011;26952;42.884;23.918;2023-03-01T15:33:31;24.05;;;19.27;;
41221;SDS011;26952;42.884;23.918;2023-03-01T15:35:59;42.72;;;15.38;;
41221;SDS011;26952;42.884;23.918;2023-03-01T15:38:27;14.93;;;13.43;;
41221;SDS011;26952;42.884;23.918;2023-03-01T15:40:57;19.13;;;12.05;;
41221;SDS011;26952;42.884;23.918;2023-03-01T15:43:44;17.77;;;11.80;;
41221;SDS011;26952;42.884;23.918;2023-03-01T15:46:18;14.13;;;12.60;;
41221;SDS011;26952;42.884;23.918;2023-03-01T15:48:48;67.68;;;17.25;;
41221;SDS011;26952;42.884;23.918;2023-03-01T15:51:17;18.75;;;14.57;;
41221;SDS011;26952;42.884;23.918;2023-03-01T15:53:50;25.00;;;13.93;;
41221;SDS011;26952;42.884;23.918;2023-03-01T15:56:17;48.72;;;14.50;;
41221;SDS011;26952;42.884;23.918;2023-03-01T15:58:43;52.00;;;16.65;;
41221;SDS011;26952;42.884;23.918;2023-03-01T16:01:10;21.42;;;15.05;;
41221;SDS011;26952;42.884;23.918;2023-03-01T16:03:38;63.80;;;17.15;;
41221;SDS011;26952;42.884;23.918;2023-03-01T16:06:04;57.08;;;17.42;;
41221;SDS011;26952;42.884;23.918;2023-03-01T16:08:29;22.40;;;16.38;;
41221;SDS011;26952;42.884;23.918;2023-03-01T16:10:54;27.30;;;14.73;;
41221;SDS011;26952;42.884;23.918;2023-03-01T16:13:20;24.63;;;14.73;;
41221;SDS011;26952;42.884;23.918;2023-03-01T16:15:45;319.00;;;27.25;;
41221;SDS011;26952;42.884;23.918;2023-03-01T16:18:11;181.82;;;19.20;;
41221;SDS011;26952;42.884;23.918;2023-03-01T16:20:37;127.82;;;19.00;;
41221;SDS011;26952;42.884;23.918;2023-03-01T16:23:03;230.30;;;22.50;;
41221;SDS011;26952;42.884;23.918;2023-03-01T16:25:31;228.23;;;21.80;;
41221;SDS011;26952;42.884;23.918;2023-03-01T16:27:57;430.23;;;29.38;;
41221;SDS011;26952;42.884;23.918;2023-03-01T16:30:25;274.02;;;24.95;;
41221;SDS011;26952;42.884;23.918;2023-03-01T16:32:51;417.40;;;24.92;;
41221;SDS011;26952;42.884;23.918;2023-03-01T16:35:17;346.60;;;28.35;;
41221;SDS011;26952;42.884;23.918;2023-03-01T16:37:45;536.03;;;32.75;;
41221;SDS011;26952;42.884;23.918;2023-03-01T16:40:32;464.85;;;36.50;;
41221;SDS011;26952;42.884;23.918;2023-03-01T16:42:57;623.33;;;41.55;;
41221;SDS011;26952;42.884;23.918;2023-03-01T16:45:26;391.50;;;35.83;;
41221;SDS011;26952;42.884;23.918;2023-03-01T16:47:53;564.63;;;37.67;;
41221;SDS011;26952;42.884;23.918;2023-03-01T16:50:19;219.07;;;27.48;;
41221;SDS011;26952;42.884;23.918;2023-03-01T16:52:44;308.88;;;26.83;;
41221;SDS011;26952;42.884;23.918;2023-03-01T16:55:10;143.88;;;24.40;;